sensor_id;sensor_type;location;lat;lon;timestamp;P1;durP1;ratioP1;P2;durP2;ratioP2
36653;SDS011;22650;49.350;20.898;2024-01-06T00:00:58;5.80;;;2.80;;
36653;SDS011;22650;49.350;20.898;2024-01-06T00:03:32;6.53;;;2.45;;
36653;SDS011;22650;49.350;20.898;2024-01-06T00:06:06;5.10;;;2.60;;
36653;SDS011;22650;49.350;20.898;2024-01-06T00:08:40;4.68;;;2.28;;
36653;SDS011;22650;49.350;20.898;2024-01-06T00:11:15;5.22;;;2.47;;
36653;SDS011;22650;49.350;20.898;2024-01-06T00:13:48;4.75;;;3.30;;
36653;SDS011;22650;49.350;20.898;2024-01-06T00:16:22;6.72;;;3.03;;
36653;SDS011;22650;49.350;20.898;2024-01-06T00:18:59;5.32;;;2.67;;
36653;SDS011;22650;49.350;20.898;2024-01-06T00:21:34;6.97;;;2.67;;
36653;SDS011;22650;49.350;20.898;2024-01-06T00:24:08;2.85;;;1.83;;
36653;SDS011;22650;49.350;20.898;2024-01-06T00:26:44;5.30;;;2.53;;
36653;SDS011;22650;49.350;20.898;2024-01-06T00:29:17;5.75;;;2.72;;
36653;SDS011;22650;49.350;20.898;2024-01-06T00:31:51;6.45;;;3.08;;
36653;SDS011;22650;49.350;20.898;2024-01-06T00:34:24;4.25;;;2.40;;
36653;SDS011;22650;49.350;20.898;2024-01-06T00:36:58;6.30;;;2.83;;
36653;SDS011;22650;49.350;20.898;2024-01-06T00:39:32;5.65;;;2.80;;
36653;SDS011;22650;49.350;20.898;2024-01-06T00:42:07;4.65;;;2.35;;
36653;SDS011;22650;49.350;20.898;2024-01-06T00:44:40;6.68;;;2.33;;
36653;SDS011;22650;49.350;20.898;2024-01-06T00:47:14;5.63;;;2.65;;
36653;SDS011;22650;49.350;20.898;2024-01-06T00:49:47;4.07;;;2.60;;
36653;SDS011;22650;49.350;20.898;2024-01-06T00:52:21;8.15;;;2.75;;
36653;SDS011;22650;49.350;20.898;2024-01-06T00:54:55;4.20;;;2.67;;
36653;SDS011;22650;49.350;20.898;2024-01-06T00:57:30;4.45;;;2.50;;
36653;SDS011;22650;49.350;20.898;2024-01-06T01:00:04;4.78;;;2.55;;
36653;SDS011;22650;49.350;20.898;2024-01-06T01:02:38;4.88;;;2.90;;
36653;SDS011;22650;49.350;20.898;2024-01-06T01:05:12;6.28;;;3.00;;
36653;SDS011;22650;49.350;20.898;2024-01-06T01:07:45;6.00;;;2.90;;
36653;SDS011;22650;49.350;20.898;2024-01-06T01:10:19;4.63;;;2.53;;
36653;SDS011;22650;49.350;20.898;2024-01-06T01:12:54;5.28;;;2.70;;
36653;SDS011;22650;49.350;20.898;2024-01-06T01:15:27;3.97;;;2.58;;
36653;SDS011;22650;49.350;20.898;2024-01-06T01:18:01;4.60;;;2.30;;
36653;SDS011;22650;49.350;20.898;2024-01-06T01:20:35;5.30;;;2.53;;
36653;SDS011;22650;49.350;20.898;2024-01-06T01:23:09;7.85;;;4.65;;
36653;SDS011;22650;49.350;20.898;2024-01-06T01:25:42;7.78;;;5.22;;
36653;SDS011;22650;49.350;20.898;2024-01-06T01:28:17;9.80;;;4.28;;
36653;SDS011;22650;49.350;20.898;2024-01-06T01:30:51;8.18;;;6.75;;
36653;SDS011;22650;49.350;20.898;2024-01-06T01:33:25;6.57;;;4.65;;
36653;SDS011;22650;49.350;20.898;2024-01-06T01:35:59;5.47;;;3.58;;
36653;SDS011;22650;49.350;20.898;2024-01-06T01:38:33;6.97;;;3.30;;
36653;SDS011;22650;49.350;20.898;2024-01-06T01:41:07;7.78;;;3.65;;
36653;SDS011;22650;49.350;20.898;2024-01-06T01:43:42;5.65;;;2.80;;
36653;SDS011;22650;49.350;20.898;2024-01-06T01:46:15;6.55;;;3.45;;
36653;SDS011;22650;49.350;20.898;2024-01-06T01:48:49;22.55;;;10.45;;
36653;SDS011;22650;49.350;20.898;2024-01-06T01:51:24;5.95;;;3.20;;
36653;SDS011;22650;49.350;20.898;2024-01-06T01:54:01;4.10;;;2.50;;
36653;SDS011;22650;49.350;20.898;2024-01-06T01:56:36;7.18;;;3.08;;
36653;SDS011;22650;49.350;20.898;2024-01-06T01:59:14;5.50;;;2.80;;
36653;SDS011;22650;49.350;20.898;2024-01-06T02:01:51;4.97;;;2.45;;
36653;SDS011;22650;49.350;20.898;2024-01-06T02:04:24;6.38;;;3.10;;
36653;SDS011;22650;49.350;20.898;2024-01-06T02:06:58;4.35;;;2.30;;
36653;SDS011;22650;49.350;20.898;2024-01-06T02:09:32;3.65;;;2.17;;
36653;SDS011;22650;49.350;20.898;2024-01-06T02:12:06;5.85;;;2.78;;
36653;SDS011;22650;49.350;20.898;2024-01-06T02:14:41;4.05;;;2.30;;
36653;SDS011;22650;49.350;20.898;2024-01-06T02:17:15;5.75;;;2.90;;
36653;SDS011;22650;49.350;20.898;2024-01-06T02:19:49;4.32;;;2.58;;
36653;SDS011;22650;49.350;20.898;2024-01-06T02:22:24;4.88;;;3.13;;
36653;SDS011;22650;49.350;20.898;2024-01-06T02:24:57;6.82;;;3.80;;
36653;SDS011;22650;49.350;20.898;2024-01-06T02:27:31;6.13;;;3.40;;
36653;SDS011;22650;49.350;20.898;2024-01-06T02:30:05;7.43;;;3.22;;
36653;SDS011;22650;49.350;20.898;2024-01-06T02:32:40;7.22;;;3.80;;
36653;SDS011;22650;49.350;20.898;2024-01-06T02:35:13;5.18;;;3.67;;
36653;SDS011;22650;49.350;20.898;2024-01-06T02:37:48;6.93;;;4.00;;
36653;SDS011;22650;49.350;20.898;2024-01-06T02:40:22;7.28;;;3.75;;
36653;SDS011;22650;49.350;20.898;2024-01-06T02:42:55;6.40;;;3.42;;
36653;SDS011;22650;49.350;20.898;2024-01-06T02:45:29;5.80;;;3.45;;
36653;SDS011;22650;49.350;20.898;2024-01-06T02:48:03;5.20;;;3.10;;
36653;SDS011;22650;49.350;20.898;2024-01-06T02:50:37;6.35;;;3.33;;
36653;SDS011;22650;49.350;20.898;2024-01-06T02:53:12;4.78;;;3.33;;
36653;SDS011;22650;49.350;20.898;2024-01-06T02:55:45;6.32;;;4.15;;
36653;SDS011;22650;49.350;20.898;2024-01-06T02:58:19;5.30;;;3.40;;
36653;SDS011;22650;49.350;20.898;2024-01-06T03:00:52;5.05;;;2.95;;
36653;SDS011;22650;49.350;20.898;2024-01-06T03:03:26;5.25;;;3.20;;
36653;SDS011;22650;49.350;20.898;2024-01-06T03:06:00;6.38;;;3.60;;
36653;SDS011;22650;49.350;20.898;2024-01-06T03:08:35;6.63;;;3.25;;
36653;SDS011;22650;49.350;20.898;2024-01-06T03:11:08;7.22;;;3.00;;
36653;SDS011;22650;49.350;20.898;2024-01-06T03:13:43;5.20;;;3.72;;
36653;SDS011;22650;49.350;20.898;2024-01-06T03:16:16;6.00;;;3.25;;
36653;SDS011;22650;49.350;20.898;2024-01-06T03:18:50;7.40;;;3.83;;
36653;SDS011;22650;49.350;20.898;2024-01-06T03:21:24;5.55;;;3.33;;
36653;SDS011;22650;49.350;20.898;2024-01-06T03:23:59;5.53;;;3.50;;
36653;SDS011;22650;49.350;20.898;2024-01-06T03:26:33;4.13;;;2.72;;
36653;SDS011;22650;49.350;20.898;2024-01-06T03:29:07;5.53;;;3.50;;
36653;SDS011;22650;49.350;20.898;2024-01-06T03:31:41;6.38;;;3.95;;
36653;SDS011;22650;49.350;20.898;2024-01-06T03:34:15;8.93;;;5.30;;
36653;SDS011;22650;49.350;20.898;2024-01-06T03:36:49;5.10;;;3.60;;
36653;SDS011;22650;49.350;20.898;2024-01-06T03:39:24;7.80;;;4.32;;
36653;SDS011;22650;49.350;20.898;2024-01-06T03:41:57;6.93;;;4.93;;
36653;SDS011;22650;49.350;20.898;2024-01-06T03:44:32;9.85;;;4.88;;
36653;SDS011;22650;49.350;20.898;2024-01-06T03:47:06;7.55;;;4.50;;
36653;SDS011;22650;49.350;20.898;2024-01-06T03:49:40;8.25;;;5.60;;
36653;SDS011;22650;49.350;20.898;2024-01-06T03:52:14;6.90;;;4.75;;
36653;SDS011;22650;49.350;20.898;2024-01-06T03:54:49;10.65;;;5.95;;
36653;SDS011;22650;49.350;20.898;2024-01-06T03:57:22;6.97;;;4.65;;
36653;SDS011;22650;49.350;20.898;2024-01-06T03:59:56;8.82;;;5.10;;
36653;SDS011;22650;49.350;20.898;2024-01-06T04:02:30;9.30;;;5.30;;
36653;SDS011;22650;49.350;20.898;2024-01-06T04:05:03;11.98;;;6.80;;
36653;SDS011;22650;49.350;20.898;2024-01-06T04:07:37;12.32;;;6.97;;
36653;SDS011;22650;49.350;20.898;2024-01-06T04:10:12;8.30;;;5.45;;
36653;SDS011;22650;49.350;20.898;2024-01-06T04:12:46;8.50;;;4.70;;
36653;SDS011;22650;49.350;20.898;2024-01-06T04:15:20;10.40;;;5.65;;
36653;SDS011;22650;49.350;20.898;2024-01-06T04:17:54;8.05;;;5.80;;
36653;SDS011;22650;49.350;20.898;2024-01-06T04:20:28;7.40;;;4.82;;
36653;SDS011;22650;49.350;20.898;2024-01-06T04:23:01;10.48;;;6.20;;
36653;SDS011;22650;49.350;20.898;2024-01-06T04:25:36;10.95;;;5.88;;
36653;SDS011;22650;49.350;20.898;2024-01-06T04:28:10;10.32;;;5.47;;
36653;SDS011;22650;49.350;20.898;2024-01-06T04:30:44;11.15;;;6.20;;
36653;SDS011;22650;49.350;20.898;2024-01-06T04:33:17;8.30;;;5.38;;
36653;SDS011;22650;49.350;20.898;2024-01-06T04:35:51;8.57;;;5.60;;
36653;SDS011;22650;49.350;20.898;2024-01-06T04:38:25;9.98;;;6.20;;
36653;SDS011;22650;49.350;20.898;2024-01-06T04:41:00;11.00;;;6.32;;
36653;SDS011;22650;49.350;20.898;2024-01-06T04:43:33;10.55;;;6.35;;
36653;SDS011;22650;49.350;20.898;2024-01-06T04:46:07;10.63;;;7.90;;
36653;SDS011;22650;49.350;20.898;2024-01-06T04:48:41;12.68;;;8.15;;
36653;SDS011;22650;49.350;20.898;2024-01-06T04:51:15;12.13;;;7.50;;
36653;SDS011;22650;49.350;20.898;2024-01-06T04:53:49;10.35;;;6.93;;
36653;SDS011;22650;49.350;20.898;2024-01-06T04:56:24;10.95;;;6.82;;
36653;SDS011;22650;49.350;20.898;2024-01-06T04:58:57;9.30;;;6.20;;
36653;SDS011;22650;49.350;20.898;2024-01-06T05:01:31;10.45;;;7.07;;
36653;SDS011;22650;49.350;20.898;2024-01-06T05:04:05;9.45;;;6.70;;
36653;SDS011;22650;49.350;20.898;2024-01-06T05:06:38;10.00;;;6.78;;
36653;SDS011;22650;49.350;20.898;2024-01-06T05:09:12;8.82;;;5.97;;
36653;SDS011;22650;49.350;20.898;2024-01-06T05:11:47;10.05;;;5.95;;
36653;SDS011;22650;49.350;20.898;2024-01-06T05:14:20;10.77;;;6.88;;
36653;SDS011;22650;49.350;20.898;2024-01-06T05:16:54;11.75;;;8.07;;
36653;SDS011;22650;49.350;20.898;2024-01-06T05:19:27;13.63;;;7.40;;
36653;SDS011;22650;49.350;20.898;2024-01-06T05:22:01;9.05;;;6.00;;
36653;SDS011;22650;49.350;20.898;2024-01-06T05:24:35;10.38;;;6.70;;
36653;SDS011;22650;49.350;20.898;2024-01-06T05:27:10;12.13;;;6.90;;
36653;SDS011;22650;49.350;20.898;2024-01-06T05:29:44;8.23;;;5.60;;
36653;SDS011;22650;49.350;20.898;2024-01-06T05:32:18;11.95;;;7.40;;
36653;SDS011;22650;49.350;20.898;2024-01-06T05:34:52;12.30;;;7.00;;
36653;SDS011;22650;49.350;20.898;2024-01-06T05:37:26;11.65;;;7.32;;
36653;SDS011;22650;49.350;20.898;2024-01-06T05:40:00;10.82;;;7.13;;
36653;SDS011;22650;49.350;20.898;2024-01-06T05:47:44;12.60;;;7.18;;
36653;SDS011;22650;49.350;20.898;2024-01-06T05:50:18;10.45;;;7.15;;
36653;SDS011;22650;49.350;20.898;2024-01-06T05:52:51;10.75;;;7.07;;
36653;SDS011;22650;49.350;20.898;2024-01-06T05:55:25;11.15;;;6.97;;
36653;SDS011;22650;49.350;20.898;2024-01-06T05:58:00;9.45;;;6.15;;
36653;SDS011;22650;49.350;20.898;2024-01-06T06:00:33;12.10;;;7.45;;
36653;SDS011;22650;49.350;20.898;2024-01-06T06:03:07;11.07;;;7.57;;
36653;SDS011;22650;49.350;20.898;2024-01-06T06:05:41;15.18;;;10.20;;
36653;SDS011;22650;49.350;20.898;2024-01-06T06:08:14;13.55;;;9.77;;
36653;SDS011;22650;49.350;20.898;2024-01-06T06:10:48;13.10;;;8.80;;
36653;SDS011;22650;49.350;20.898;2024-01-06T06:13:34;14.82;;;9.30;;
36653;SDS011;22650;49.350;20.898;2024-01-06T06:16:08;13.90;;;8.18;;
36653;SDS011;22650;49.350;20.898;2024-01-06T06:18:44;12.73;;;7.97;;
36653;SDS011;22650;49.350;20.898;2024-01-06T06:21:18;9.90;;;6.78;;
36653;SDS011;22650;49.350;20.898;2024-01-06T06:23:51;10.38;;;7.35;;
36653;SDS011;22650;49.350;20.898;2024-01-06T06:26:25;9.90;;;7.47;;
36653;SDS011;22650;49.350;20.898;2024-01-06T06:29:01;13.15;;;7.82;;
36653;SDS011;22650;49.350;20.898;2024-01-06T06:31:35;20.25;;;14.07;;
36653;SDS011;22650;49.350;20.898;2024-01-06T06:34:09;18.08;;;11.93;;
36653;SDS011;22650;49.350;20.898;2024-01-06T06:36:42;15.35;;;10.40;;
36653;SDS011;22650;49.350;20.898;2024-01-06T06:39:17;12.38;;;7.78;;
36653;SDS011;22650;49.350;20.898;2024-01-06T06:41:51;17.40;;;10.45;;
36653;SDS011;22650;49.350;20.898;2024-01-06T06:44:26;14.68;;;9.18;;
36653;SDS011;22650;49.350;20.898;2024-01-06T06:47:00;18.38;;;9.02;;
36653;SDS011;22650;49.350;20.898;2024-01-06T06:49:33;13.57;;;8.45;;
36653;SDS011;22650;49.350;20.898;2024-01-06T06:52:07;14.50;;;9.27;;
36653;SDS011;22650;49.350;20.898;2024-01-06T06:54:41;25.35;;;13.52;;
36653;SDS011;22650;49.350;20.898;2024-01-06T06:57:14;16.23;;;9.88;;
36653;SDS011;22650;49.350;20.898;2024-01-06T06:59:50;19.80;;;11.88;;
36653;SDS011;22650;49.350;20.898;2024-01-06T07:02:23;20.80;;;12.05;;
36653;SDS011;22650;49.350;20.898;2024-01-06T07:04:57;18.98;;;11.00;;
36653;SDS011;22650;49.350;20.898;2024-01-06T07:07:31;17.58;;;10.82;;
36653;SDS011;22650;49.350;20.898;2024-01-06T07:10:05;20.15;;;11.85;;
36653;SDS011;22650;49.350;20.898;2024-01-06T07:12:40;21.80;;;12.13;;
36653;SDS011;22650;49.350;20.898;2024-01-06T07:15:15;16.63;;;10.70;;
36653;SDS011;22650;49.350;20.898;2024-01-06T07:17:48;16.20;;;10.48;;
36653;SDS011;22650;49.350;20.898;2024-01-06T07:20:22;14.55;;;9.48;;
36653;SDS011;22650;49.350;20.898;2024-01-06T07:22:56;15.18;;;9.48;;
36653;SDS011;22650;49.350;20.898;2024-01-06T07:25:29;17.30;;;11.77;;
36653;SDS011;22650;49.350;20.898;2024-01-06T07:28:03;23.23;;;15.00;;
36653;SDS011;22650;49.350;20.898;2024-01-06T07:30:38;23.48;;;13.82;;
36653;SDS011;22650;49.350;20.898;2024-01-06T07:33:12;21.13;;;13.35;;
36653;SDS011;22650;49.350;20.898;2024-01-06T07:35:46;15.77;;;9.38;;
36653;SDS011;22650;49.350;20.898;2024-01-06T07:38:19;14.50;;;8.90;;
36653;SDS011;22650;49.350;20.898;2024-01-06T07:40:53;15.90;;;10.80;;
36653;SDS011;22650;49.350;20.898;2024-01-06T07:43:27;16.23;;;11.13;;
36653;SDS011;22650;49.350;20.898;2024-01-06T07:46:02;15.95;;;11.27;;
36653;SDS011;22650;49.350;20.898;2024-01-06T07:48:36;16.65;;;9.30;;
36653;SDS011;22650;49.350;20.898;2024-01-06T07:51:10;15.00;;;9.93;;
36653;SDS011;22650;49.350;20.898;2024-01-06T07:53:44;15.10;;;10.07;;
36653;SDS011;22650;49.350;20.898;2024-01-06T07:56:17;18.48;;;10.88;;
36653;SDS011;22650;49.350;20.898;2024-01-06T07:58:51;17.92;;;10.88;;
36653;SDS011;22650;49.350;20.898;2024-01-06T08:01:27;14.05;;;9.00;;
36653;SDS011;22650;49.350;20.898;2024-01-06T08:04:01;13.82;;;8.77;;
36653;SDS011;22650;49.350;20.898;2024-01-06T08:06:35;13.60;;;7.95;;
36653;SDS011;22650;49.350;20.898;2024-01-06T08:09:09;12.52;;;8.77;;
36653;SDS011;22650;49.350;20.898;2024-01-06T08:11:42;22.67;;;13.77;;
36653;SDS011;22650;49.350;20.898;2024-01-06T08:14:19;17.05;;;10.40;;
36653;SDS011;22650;49.350;20.898;2024-01-06T08:16:54;19.42;;;11.55;;
36653;SDS011;22650;49.350;20.898;2024-01-06T08:19:28;18.88;;;12.43;;
36653;SDS011;22650;49.350;20.898;2024-01-06T08:22:04;24.15;;;14.13;;
36653;SDS011;22650;49.350;20.898;2024-01-06T08:24:37;21.83;;;14.20;;
36653;SDS011;22650;49.350;20.898;2024-01-06T08:27:11;14.88;;;11.00;;
36653;SDS011;22650;49.350;20.898;2024-01-06T08:29:45;22.75;;;14.00;;
36653;SDS011;22650;49.350;20.898;2024-01-06T08:32:19;21.05;;;14.25;;
36653;SDS011;22650;49.350;20.898;2024-01-06T08:34:53;20.00;;;12.80;;
36653;SDS011;22650;49.350;20.898;2024-01-06T08:37:27;19.25;;;12.68;;
36653;SDS011;22650;49.350;20.898;2024-01-06T08:40:00;14.25;;;8.73;;
36653;SDS011;22650;49.350;20.898;2024-01-06T08:42:35;16.55;;;10.52;;
36653;SDS011;22650;49.350;20.898;2024-01-06T08:45:09;21.15;;;13.85;;
36653;SDS011;22650;49.350;20.898;2024-01-06T08:47:44;63.63;;;28.20;;
36653;SDS011;22650;49.350;20.898;2024-01-06T08:50:18;29.70;;;15.63;;
36653;SDS011;22650;49.350;20.898;2024-01-06T08:52:52;30.90;;;16.70;;
36653;SDS011;22650;49.350;20.898;2024-01-06T08:55:26;28.23;;;16.50;;
36653;SDS011;22650;49.350;20.898;2024-01-06T08:58:00;29.13;;;17.65;;
36653;SDS011;22650;49.350;20.898;2024-01-06T09:00:33;12.95;;;8.00;;
36653;SDS011;22650;49.350;20.898;2024-01-06T09:03:08;34.10;;;19.52;;
36653;SDS011;22650;49.350;20.898;2024-01-06T09:05:44;35.05;;;20.52;;
36653;SDS011;22650;49.350;20.898;2024-01-06T09:08:17;42.10;;;23.92;;
36653;SDS011;22650;49.350;20.898;2024-01-06T09:10:51;31.52;;;18.77;;
36653;SDS011;22650;49.350;20.898;2024-01-06T09:13:29;23.42;;;12.90;;
36653;SDS011;22650;49.350;20.898;2024-01-06T09:16:04;18.52;;;11.57;;
36653;SDS011;22650;49.350;20.898;2024-01-06T09:18:39;22.52;;;12.65;;
36653;SDS011;22650;49.350;20.898;2024-01-06T09:21:13;100.55;;;38.30;;
36653;SDS011;22650;49.350;20.898;2024-01-06T09:23:47;54.72;;;23.10;;
36653;SDS011;22650;49.350;20.898;2024-01-06T09:26:20;25.17;;;13.32;;
36653;SDS011;22650;49.350;20.898;2024-01-06T09:28:54;28.45;;;15.50;;
36653;SDS011;22650;49.350;20.898;2024-01-06T09:31:28;43.78;;;24.02;;
36653;SDS011;22650;49.350;20.898;2024-01-06T09:34:04;33.35;;;16.30;;
36653;SDS011;22650;49.350;20.898;2024-01-06T09:36:38;26.15;;;11.68;;
36653;SDS011;22650;49.350;20.898;2024-01-06T09:39:12;25.65;;;13.15;;
36653;SDS011;22650;49.350;20.898;2024-01-06T09:41:46;32.38;;;16.05;;
36653;SDS011;22650;49.350;20.898;2024-01-06T09:44:19;19.67;;;11.20;;
36653;SDS011;22650;49.350;20.898;2024-01-06T09:46:53;16.60;;;8.07;;
36653;SDS011;22650;49.350;20.898;2024-01-06T09:49:32;9.27;;;5.97;;
36653;SDS011;22650;49.350;20.898;2024-01-06T09:52:14;13.82;;;8.68;;
36653;SDS011;22650;49.350;20.898;2024-01-06T09:54:53;11.65;;;8.05;;
36653;SDS011;22650;49.350;20.898;2024-01-06T09:57:28;14.52;;;9.35;;
36653;SDS011;22650;49.350;20.898;2024-01-06T10:00:02;11.73;;;8.40;;
36653;SDS011;22650;49.350;20.898;2024-01-06T10:02:42;10.63;;;6.20;;
36653;SDS011;22650;49.350;20.898;2024-01-06T10:05:19;11.70;;;6.82;;
36653;SDS011;22650;49.350;20.898;2024-01-06T10:10:26;13.68;;;8.52;;
36653;SDS011;22650;49.350;20.898;2024-01-06T10:13:01;17.02;;;10.77;;
36653;SDS011;22650;49.350;20.898;2024-01-06T10:15:35;12.88;;;8.90;;
36653;SDS011;22650;49.350;20.898;2024-01-06T10:18:09;13.43;;;9.90;;
36653;SDS011;22650;49.350;20.898;2024-01-06T10:20:44;13.15;;;9.55;;
36653;SDS011;22650;49.350;20.898;2024-01-06T10:23:18;12.52;;;8.73;;
36653;SDS011;22650;49.350;20.898;2024-01-06T10:25:52;14.25;;;8.93;;
36653;SDS011;22650;49.350;20.898;2024-01-06T10:28:29;10.30;;;6.05;;
36653;SDS011;22650;49.350;20.898;2024-01-06T10:31:04;14.55;;;7.85;;
36653;SDS011;22650;49.350;20.898;2024-01-06T10:33:38;14.52;;;8.25;;
36653;SDS011;22650;49.350;20.898;2024-01-06T10:36:13;15.73;;;8.32;;
36653;SDS011;22650;49.350;20.898;2024-01-06T10:38:48;17.02;;;8.85;;
36653;SDS011;22650;49.350;20.898;2024-01-06T10:41:22;18.15;;;9.30;;
36653;SDS011;22650;49.350;20.898;2024-01-06T10:43:57;10.88;;;6.15;;
36653;SDS011;22650;49.350;20.898;2024-01-06T10:46:34;9.32;;;5.88;;
36653;SDS011;22650;49.350;20.898;2024-01-06T10:49:09;9.15;;;5.43;;
36653;SDS011;22650;49.350;20.898;2024-01-06T10:51:46;10.05;;;6.07;;
36653;SDS011;22650;49.350;20.898;2024-01-06T10:54:21;21.95;;;10.43;;
36653;SDS011;22650;49.350;20.898;2024-01-06T10:56:55;19.33;;;8.60;;
36653;SDS011;22650;49.350;20.898;2024-01-06T10:59:30;15.73;;;8.73;;
36653;SDS011;22650;49.350;20.898;2024-01-06T11:02:07;18.67;;;11.75;;
36653;SDS011;22650;49.350;20.898;2024-01-06T11:04:43;10.93;;;6.20;;
36653;SDS011;22650;49.350;20.898;2024-01-06T11:07:20;7.95;;;5.05;;
36653;SDS011;22650;49.350;20.898;2024-01-06T11:09:56;8.00;;;5.47;;
36653;SDS011;22650;49.350;20.898;2024-01-06T11:12:31;7.80;;;5.35;;
36653;SDS011;22650;49.350;20.898;2024-01-06T11:15:05;7.45;;;5.95;;
36653;SDS011;22650;49.350;20.898;2024-01-06T11:17:48;7.55;;;5.72;;
36653;SDS011;22650;49.350;20.898;2024-01-06T11:20:25;6.80;;;6.03;;
36653;SDS011;22650;49.350;20.898;2024-01-06T11:25:53;7.97;;;4.65;;
36653;SDS011;22650;49.350;20.898;2024-01-06T11:28:27;9.25;;;5.82;;
36653;SDS011;22650;49.350;20.898;2024-01-06T11:31:07;8.57;;;5.95;;
36653;SDS011;22650;49.350;20.898;2024-01-06T11:33:42;8.10;;;5.32;;
36653;SDS011;22650;49.350;20.898;2024-01-06T11:36:16;6.85;;;4.70;;
36653;SDS011;22650;49.350;20.898;2024-01-06T11:38:51;9.20;;;5.15;;
36653;SDS011;22650;49.350;20.898;2024-01-06T11:44:20;7.00;;;4.65;;
36653;SDS011;22650;49.350;20.898;2024-01-06T11:46:54;9.95;;;6.25;;
36653;SDS011;22650;49.350;20.898;2024-01-06T11:49:29;9.00;;;6.50;;
36653;SDS011;22650;49.350;20.898;2024-01-06T11:52:04;10.02;;;7.40;;
36653;SDS011;22650;49.350;20.898;2024-01-06T11:54:39;8.18;;;6.20;;
36653;SDS011;22650;49.350;20.898;2024-01-06T11:57:14;9.05;;;6.05;;
36653;SDS011;22650;49.350;20.898;2024-01-06T11:59:47;7.72;;;5.55;;
36653;SDS011;22650;49.350;20.898;2024-01-06T12:02:22;9.68;;;6.97;;
36653;SDS011;22650;49.350;20.898;2024-01-06T12:04:55;8.75;;;6.13;;
36653;SDS011;22650;49.350;20.898;2024-01-06T12:07:29;9.02;;;5.90;;
36653;SDS011;22650;49.350;20.898;2024-01-06T12:10:08;7.50;;;5.68;;
36653;SDS011;22650;49.350;20.898;2024-01-06T12:12:42;9.45;;;6.32;;
36653;SDS011;22650;49.350;20.898;2024-01-06T12:15:27;8.40;;;5.78;;
36653;SDS011;22650;49.350;20.898;2024-01-06T12:18:02;7.65;;;5.70;;
36653;SDS011;22650;49.350;20.898;2024-01-06T12:23:11;12.70;;;8.55;;
36653;SDS011;22650;49.350;20.898;2024-01-06T12:25:48;19.08;;;10.35;;
36653;SDS011;22650;49.350;20.898;2024-01-06T12:28:22;29.63;;;16.17;;
36653;SDS011;22650;49.350;20.898;2024-01-06T12:30:56;31.33;;;17.30;;
36653;SDS011;22650;49.350;20.898;2024-01-06T12:33:30;19.63;;;11.40;;
36653;SDS011;22650;49.350;20.898;2024-01-06T12:36:07;21.60;;;14.60;;
36653;SDS011;22650;49.350;20.898;2024-01-06T12:38:55;13.05;;;9.45;;
36653;SDS011;22650;49.350;20.898;2024-01-06T12:41:31;11.73;;;8.45;;
36653;SDS011;22650;49.350;20.898;2024-01-06T12:44:06;14.70;;;8.85;;
36653;SDS011;22650;49.350;20.898;2024-01-06T12:46:40;11.02;;;8.35;;
36653;SDS011;22650;49.350;20.898;2024-01-06T12:49:14;10.18;;;7.25;;
36653;SDS011;22650;49.350;20.898;2024-01-06T12:51:48;9.80;;;7.03;;
36653;SDS011;22650;49.350;20.898;2024-01-06T12:54:22;9.43;;;6.80;;
36653;SDS011;22650;49.350;20.898;2024-01-06T12:56:57;12.23;;;8.15;;
36653;SDS011;22650;49.350;20.898;2024-01-06T12:59:31;14.32;;;8.45;;
36653;SDS011;22650;49.350;20.898;2024-01-06T13:02:05;14.27;;;9.30;;
36653;SDS011;22650;49.350;20.898;2024-01-06T13:04:39;12.52;;;9.13;;
36653;SDS011;22650;49.350;20.898;2024-01-06T13:07:12;14.45;;;9.15;;
36653;SDS011;22650;49.350;20.898;2024-01-06T13:09:46;11.35;;;7.28;;
36653;SDS011;22650;49.350;20.898;2024-01-06T13:12:22;13.63;;;8.48;;
36653;SDS011;22650;49.350;20.898;2024-01-06T13:14:56;11.70;;;7.70;;
36653;SDS011;22650;49.350;20.898;2024-01-06T13:17:31;11.50;;;8.15;;
36653;SDS011;22650;49.350;20.898;2024-01-06T13:20:05;9.73;;;6.68;;
36653;SDS011;22650;49.350;20.898;2024-01-06T13:22:40;12.35;;;8.43;;
36653;SDS011;22650;49.350;20.898;2024-01-06T13:25:14;11.95;;;8.68;;
36653;SDS011;22650;49.350;20.898;2024-01-06T13:27:50;8.20;;;6.60;;
36653;SDS011;22650;49.350;20.898;2024-01-06T13:30:24;11.68;;;7.53;;
36653;SDS011;22650;49.350;20.898;2024-01-06T13:32:58;11.55;;;7.97;;
36653;SDS011;22650;49.350;20.898;2024-01-06T13:35:32;9.13;;;6.85;;
36653;SDS011;22650;49.350;20.898;2024-01-06T13:38:05;10.65;;;6.88;;
36653;SDS011;22650;49.350;20.898;2024-01-06T13:43:15;10.10;;;6.18;;
36653;SDS011;22650;49.350;20.898;2024-01-06T13:45:49;8.95;;;6.30;;
36653;SDS011;22650;49.350;20.898;2024-01-06T13:48:23;8.30;;;6.50;;
36653;SDS011;22650;49.350;20.898;2024-01-06T13:50:57;10.50;;;6.38;;
36653;SDS011;22650;49.350;20.898;2024-01-06T13:53:31;8.63;;;5.95;;
36653;SDS011;22650;49.350;20.898;2024-01-06T13:56:05;9.98;;;6.80;;
36653;SDS011;22650;49.350;20.898;2024-01-06T13:58:42;16.95;;;10.27;;
36653;SDS011;22650;49.350;20.898;2024-01-06T14:01:15;21.65;;;16.60;;
36653;SDS011;22650;49.350;20.898;2024-01-06T14:03:49;28.92;;;19.67;;
36653;SDS011;22650;49.350;20.898;2024-01-06T14:06:32;35.53;;;24.10;;
36653;SDS011;22650;49.350;20.898;2024-01-06T14:09:06;27.23;;;19.92;;
36653;SDS011;22650;49.350;20.898;2024-01-06T14:11:40;19.35;;;14.25;;
36653;SDS011;22650;49.350;20.898;2024-01-06T14:14:15;12.98;;;9.35;;
36653;SDS011;22650;49.350;20.898;2024-01-06T14:16:48;14.10;;;10.25;;
36653;SDS011;22650;49.350;20.898;2024-01-06T14:19:23;15.30;;;10.77;;
36653;SDS011;22650;49.350;20.898;2024-01-06T14:21:57;13.70;;;9.45;;
36653;SDS011;22650;49.350;20.898;2024-01-06T14:24:31;12.60;;;8.95;;
36653;SDS011;22650;49.350;20.898;2024-01-06T14:27:05;13.82;;;9.93;;
36653;SDS011;22650;49.350;20.898;2024-01-06T14:29:40;11.93;;;7.43;;
36653;SDS011;22650;49.350;20.898;2024-01-06T14:32:13;10.85;;;6.80;;
36653;SDS011;22650;49.350;20.898;2024-01-06T14:34:47;12.43;;;8.82;;
36653;SDS011;22650;49.350;20.898;2024-01-06T14:37:21;10.43;;;7.97;;
36653;SDS011;22650;49.350;20.898;2024-01-06T14:39:54;12.18;;;8.98;;
36653;SDS011;22650;49.350;20.898;2024-01-06T14:42:28;14.23;;;8.98;;
36653;SDS011;22650;49.350;20.898;2024-01-06T14:45:03;9.43;;;6.63;;
36653;SDS011;22650;49.350;20.898;2024-01-06T14:47:40;12.10;;;8.05;;
36653;SDS011;22650;49.350;20.898;2024-01-06T14:50:13;13.13;;;8.48;;
36653;SDS011;22650;49.350;20.898;2024-01-06T14:52:47;15.02;;;10.95;;
36653;SDS011;22650;49.350;20.898;2024-01-06T14:55:21;11.82;;;8.80;;
36653;SDS011;22650;49.350;20.898;2024-01-06T14:57:54;13.05;;;10.00;;
36653;SDS011;22650;49.350;20.898;2024-01-06T15:00:29;15.15;;;11.05;;
36653;SDS011;22650;49.350;20.898;2024-01-06T15:05:37;12.45;;;9.25;;
36653;SDS011;22650;49.350;20.898;2024-01-06T15:08:11;15.63;;;10.77;;
36653;SDS011;22650;49.350;20.898;2024-01-06T15:10:44;18.08;;;13.75;;
36653;SDS011;22650;49.350;20.898;2024-01-06T15:13:18;31.67;;;22.40;;
36653;SDS011;22650;49.350;20.898;2024-01-06T15:15:53;17.60;;;11.82;;
36653;SDS011;22650;49.350;20.898;2024-01-06T15:21:00;18.90;;;14.15;;
36653;SDS011;22650;49.350;20.898;2024-01-06T15:23:34;14.18;;;11.73;;
36653;SDS011;22650;49.350;20.898;2024-01-06T15:26:07;18.40;;;13.30;;
36653;SDS011;22650;49.350;20.898;2024-01-06T15:28:42;15.27;;;12.20;;